This is the latest recevied weather packets stored in our database for station/object WP3OF-3. If no packets are shown the sender has not sent any weather packets the latest 1 day(s).
| Time | Temp. | Humidity | Pressure | Rain* | Wind** | Luminosity | Snow |
|---|---|---|---|---|---|---|---|
| 1778091226 | 28.33° C | 75% | 1019.4 hPa | 0 mm | - | - | - |
| 1778090923 | 28.89° C | 75% | 1019.4 hPa | 0 mm | - | - | - |
| 1778090013 | 28.89° C | 74% | 1019.7 hPa | 0 mm | - | - | - |
| 1778089407 | 28.89° C | 75% | 1019.9 hPa | 0 mm | - | - | - |
| 1778087589 | 29.44° C | 73% | 1020.2 hPa | 0 mm | - | - | - |
| 1778087287 | 29.44° C | 75% | 1020.5 hPa | 0 mm | - | - | - |
| 1778085164 | 28.89° C | 73% | 1020.9 hPa | 0 mm | - | - | - |
| 1778084860 | 28.89° C | 72% | 1020.9 hPa | 0 mm | - | - | - |
| 1778084255 | 29.44° C | 71% | 1021.1 hPa | 0 mm | - | - | - |
| 1778083650 | 29.44° C | 72% | 1021.1 hPa | 0 mm | - | - | - |
| 1778080702 | 30° C | 64% | 1021.7 hPa | 0 mm | - | - | - |
| 1778080095 | 29.44° C | 64% | 1021.4 hPa | 0 mm | - | - | - |
| 1778079489 | 29.44° C | 63% | 1021.6 hPa | 0 mm | - | - | - |
| 1778077673 | 28.89° C | 61% | 1021.7 hPa | 0 mm | - | - | - |
| 1778076464 | 29.44° C | 60% | 1021.7 hPa | 0 mm | - | - | - |
| 1778075251 | 28.89° C | 59% | 1021.6 hPa | 0 mm | - | - | - |
| 1778074341 | 28.33° C | 58% | 1021.7 hPa | 0 mm | - | - | - |
| 1778074038 | 28.33° C | 61% | 1021.6 hPa | 0 mm | - | - | - |
| 1778073735 | 28.33° C | 62% | 1021.4 hPa | 0 mm | - | - | - |
| 1778072221 | 24.44° C | 78% | 1021.3 hPa | 0 mm | - | - | - |
| 1778070710 | 22.22° C | 90% | 1021.2 hPa | 0 mm | - | - | - |
| 1778070406 | 21.67° C | 91% | 1021.2 hPa | 0 mm | - | - | - |
| 1778070104 | 21.67° C | 93% | 1021.1 hPa | 0 mm | - | - | - |
| 1778068289 | 20.56° C | 95% | 1021 hPa | 0 mm | - | - | - |
| 1778067986 | 20.56° C | 95% | 1020.7 hPa | 0 mm | - | - | - |
* Rain latest hour (hover to see other rain measurements)
** Current wind speed in m/s (hover to see current wind gust speed)